Akron, Indiana
Current Conditions -  °F | °C
As of 6:15 PM on Wednesday 22 Oct 2014 (Local Time) from KRCR Reporting Station
Clear Clear  
Wind Chill: 55°   Ceiling: Unl
Heat Index: 55°   Visibility: 10mi
Dew Point: 37°   Wind: 6mph
Humidity: 51%   Direction: 50°NE
Pressure: 30.28"   Gusts: NA
Location:  41.04°N, 86.03°W
Report Text: KRCR 222215Z AUTO 05005KT 10SM CLR 13/03 A3028 RMK AO2
Loading
Personal Weather Stations






























Interactive Weather Map
Tropical Storm Tracking
New forecast layout! Learn more

10-Day Weather Forecast

Advertisements
Track Severe Weather on mobile